sensor_id;sensor_type;location;lat;lon;timestamp;pressure;altitude;pressure_sealevel;temperature;humidity
77240;BME280;66258;53.170;-2.240;2023-03-20T00:00:28;100266.81;;;14.84;nan
77240;BME280;66258;53.170;-2.240;2023-03-20T00:02:55;100269.25;;;14.93;nan
77240;BME280;66258;53.170;-2.240;2023-03-20T00:05:24;100259.75;;;14.89;nan
77240;BME280;66258;53.170;-2.240;2023-03-20T00:07:51;100248.66;;;14.91;nan
77240;BME280;66258;53.170;-2.240;2023-03-20T00:10:20;100261.72;;;14.95;nan
77240;BME280;66258;53.170;-2.240;2023-03-20T00:12:49;100254.16;;;14.76;nan
77240;BME280;66258;53.170;-2.240;2023-03-20T00:15:23;100254.91;;;14.63;nan
77240;BME280;66258;53.170;-2.240;2023-03-20T00:17:50;100253.66;;;14.66;nan
77240;BME280;66258;53.170;-2.240;2023-03-20T00:20:18;100256.13;;;14.82;nan
77240;BME280;66258;53.170;-2.240;2023-03-20T00:22:46;100243.50;;;14.74;nan
77240;BME280;66258;53.170;-2.240;2023-03-20T00:25:14;100245.38;;;14.74;nan
77240;BME280;66258;53.170;-2.240;2023-03-20T00:27:42;100242.38;;;14.69;nan
77240;BME280;66258;53.170;-2.240;2023-03-20T00:30:24;100238.28;;;14.79;nan
77240;BME280;66258;53.170;-2.240;2023-03-20T00:32:51;100231.75;;;14.74;nan
77240;BME280;66258;53.170;-2.240;2023-03-20T00:35:21;100235.09;;;14.76;nan
77240;BME280;66258;53.170;-2.240;2023-03-20T00:37:51;100228.19;;;14.73;nan
77240;BME280;66258;53.170;-2.240;2023-03-20T00:40:18;100229.31;;;14.86;nan
77240;BME280;66258;53.170;-2.240;2023-03-20T00:42:47;100220.31;;;14.64;nan
77240;BME280;66258;53.170;-2.240;2023-03-20T00:45:17;100218.97;;;14.53;nan
77240;BME280;66258;53.170;-2.240;2023-03-20T00:47:47;100210.19;;;14.58;nan
77240;BME280;66258;53.170;-2.240;2023-03-20T00:50:20;100219.66;;;14.83;nan
77240;BME280;66258;53.170;-2.240;2023-03-20T00:52:47;100218.75;;;14.76;nan
77240;BME280;66258;53.170;-2.240;2023-03-20T00:55:16;100209.09;;;14.73;nan
77240;BME280;66258;53.170;-2.240;2023-03-20T00:57:45;100202.91;;;14.86;nan
77240;BME280;66258;53.170;-2.240;2023-03-20T01:00:23;100204.81;;;14.64;nan
77240;BME280;66258;53.170;-2.240;2023-03-20T01:02:52;100203.66;;;15.01;nan
77240;BME280;66258;53.170;-2.240;2023-03-20T01:05:20;100205.06;;;14.91;nan
77240;BME280;66258;53.170;-2.240;2023-03-20T01:07:47;100199.00;;;14.95;nan
77240;BME280;66258;53.170;-2.240;2023-03-20T01:10:15;100196.88;;;14.91;nan
77240;BME280;66258;53.170;-2.240;2023-03-20T01:12:43;100192.25;;;14.91;nan
77240;BME280;66258;53.170;-2.240;2023-03-20T01:15:18;100182.00;;;14.93;nan
77240;BME280;66258;53.170;-2.240;2023-03-20T01:17:45;100191.31;;;15.05;nan
77240;BME280;66258;53.170;-2.240;2023-03-20T01:20:15;100179.69;;;14.97;nan
77240;BME280;66258;53.170;-2.240;2023-03-20T01:22:43;100181.44;;;15.04;nan
77240;BME280;66258;53.170;-2.240;2023-03-20T01:25:09;100175.84;;;15.12;nan
77240;BME280;66258;53.170;-2.240;2023-03-20T01:27:38;100185.41;;;15.02;nan
77240;BME280;66258;53.170;-2.240;2023-03-20T01:30:15;100173.00;;;14.99;nan
77240;BME280;66258;53.170;-2.240;2023-03-20T01:32:42;100173.13;;;14.85;nan
77240;BME280;66258;53.170;-2.240;2023-03-20T01:35:11;100162.22;;;14.85;nan
77240;BME280;66258;53.170;-2.240;2023-03-20T01:37:38;100166.44;;;14.87;nan
77240;BME280;66258;53.170;-2.240;2023-03-20T01:40:14;100167.47;;;14.86;nan
77240;BME280;66258;53.170;-2.240;2023-03-20T01:42:43;100170.09;;;15.01;nan
77240;BME280;66258;53.170;-2.240;2023-03-20T01:45:15;100167.69;;;15.19;nan
77240;BME280;66258;53.170;-2.240;2023-03-20T01:47:42;100170.16;;;15.07;nan
77240;BME280;66258;53.170;-2.240;2023-03-20T01:50:28;100161.38;;;15.12;nan
77240;BME280;66258;53.170;-2.240;2023-03-20T01:53:00;100163.81;;;15.00;nan
77240;BME280;66258;53.170;-2.240;2023-03-20T01:55:27;100161.78;;;15.09;nan
77240;BME280;66258;53.170;-2.240;2023-03-20T01:58:00;100159.03;;;15.09;nan
77240;BME280;66258;53.170;-2.240;2023-03-20T02:00:30;100148.94;;;15.03;nan
77240;BME280;66258;53.170;-2.240;2023-03-20T02:02:57;100150.22;;;15.07;nan
77240;BME280;66258;53.170;-2.240;2023-03-20T02:05:24;100152.81;;;15.15;nan
77240;BME280;66258;53.170;-2.240;2023-03-20T02:08:01;100146.31;;;15.23;nan
77240;BME280;66258;53.170;-2.240;2023-03-20T02:10:31;100141.44;;;15.11;nan
77240;BME280;66258;53.170;-2.240;2023-03-20T02:13:01;100140.97;;;15.36;nan
77240;BME280;66258;53.170;-2.240;2023-03-20T02:15:29;100141.03;;;15.49;nan
77240;BME280;66258;53.170;-2.240;2023-03-20T02:17:56;100140.34;;;15.40;nan
77240;BME280;66258;53.170;-2.240;2023-03-20T02:20:32;100131.03;;;15.56;nan
77240;BME280;66258;53.170;-2.240;2023-03-20T02:26:25;100121.44;;;15.32;nan
77240;BME280;66258;53.170;-2.240;2023-03-20T02:35:42;100113.97;;;15.54;nan
77240;BME280;66258;53.170;-2.240;2023-03-20T02:38:25;100106.84;;;15.53;nan
77240;BME280;66258;53.170;-2.240;2023-03-20T02:41:00;100106.47;;;15.63;nan
77240;BME280;66258;53.170;-2.240;2023-03-20T02:43:36;100098.81;;;15.45;nan
77240;BME280;66258;53.170;-2.240;2023-03-20T02:46:10;100102.97;;;15.34;nan
77240;BME280;66258;53.170;-2.240;2023-03-20T02:48:44;100102.59;;;15.37;nan
77240;BME280;66258;53.170;-2.240;2023-03-20T02:51:17;100100.19;;;15.69;nan
77240;BME280;66258;53.170;-2.240;2023-03-20T02:53:51;100100.91;;;15.43;nan
77240;BME280;66258;53.170;-2.240;2023-03-20T02:56:25;100096.75;;;15.54;nan
77240;BME280;66258;53.170;-2.240;2023-03-20T02:59:01;100101.88;;;15.70;nan
77240;BME280;66258;53.170;-2.240;2023-03-20T03:01:36;100096.22;;;15.71;nan
77240;BME280;66258;53.170;-2.240;2023-03-20T03:04:08;100097.44;;;15.56;nan
77240;BME280;66258;53.170;-2.240;2023-03-20T03:06:39;100099.16;;;15.70;nan
77240;BME280;66258;53.170;-2.240;2023-03-20T03:09:12;100093.47;;;15.58;nan
77240;BME280;66258;53.170;-2.240;2023-03-20T03:11:47;100097.69;;;15.67;nan
77240;BME280;66258;53.170;-2.240;2023-03-20T03:14:18;100085.75;;;15.81;nan
77240;BME280;66258;53.170;-2.240;2023-03-20T03:16:48;100087.69;;;15.94;nan
77240;BME280;66258;53.170;-2.240;2023-03-20T03:19:20;100082.84;;;15.90;nan
77240;BME280;66258;53.170;-2.240;2023-03-20T03:21:48;100083.88;;;15.89;nan
77240;BME280;66258;53.170;-2.240;2023-03-20T03:24:27;100082.19;;;15.88;nan
77240;BME280;66258;53.170;-2.240;2023-03-20T03:27:12;100068.34;;;15.89;nan
77240;BME280;66258;53.170;-2.240;2023-03-20T03:29:41;100074.47;;;15.98;nan
77240;BME280;66258;53.170;-2.240;2023-03-20T03:32:22;100071.44;;;15.66;nan
77240;BME280;66258;53.170;-2.240;2023-03-20T03:34:50;100072.13;;;16.01;nan
77240;BME280;66258;53.170;-2.240;2023-03-20T03:37:25;100069.66;;;16.20;nan
77240;BME280;66258;53.170;-2.240;2023-03-20T03:40:02;100074.69;;;16.36;nan
77240;BME280;66258;53.170;-2.240;2023-03-20T03:42:37;100060.63;;;16.39;nan
77240;BME280;66258;53.170;-2.240;2023-03-20T03:45:11;100056.41;;;16.36;nan
77240;BME280;66258;53.170;-2.240;2023-03-20T03:47:44;100067.75;;;16.40;nan
77240;BME280;66258;53.170;-2.240;2023-03-20T03:50:17;100054.50;;;16.30;nan
77240;BME280;66258;53.170;-2.240;2023-03-20T03:52:48;100062.50;;;16.52;nan
77240;BME280;66258;53.170;-2.240;2023-03-20T03:55:20;100055.78;;;16.61;nan
77240;BME280;66258;53.170;-2.240;2023-03-20T03:57:52;100058.50;;;16.54;nan
77240;BME280;66258;53.170;-2.240;2023-03-20T04:00:23;100059.78;;;16.65;nan
77240;BME280;66258;53.170;-2.240;2023-03-20T04:02:53;100046.09;;;16.58;nan
77240;BME280;66258;53.170;-2.240;2023-03-20T04:05:20;100057.03;;;16.78;nan
77240;BME280;66258;53.170;-2.240;2023-03-20T04:07:52;100069.22;;;16.82;nan
77240;BME280;66258;53.170;-2.240;2023-03-20T04:10:21;100062.09;;;16.74;nan
77240;BME280;66258;53.170;-2.240;2023-03-20T04:12:48;100058.28;;;16.56;nan
77240;BME280;66258;53.170;-2.240;2023-03-20T04:15:15;100065.03;;;16.73;nan
77240;BME280;66258;53.170;-2.240;2023-03-20T04:17:43;100063.34;;;16.72;nan
77240;BME280;66258;53.170;-2.240;2023-03-20T04:20:10;100070.91;;;16.83;nan
77240;BME280;66258;53.170;-2.240;2023-03-20T04:22:37;100069.63;;;16.92;nan
77240;BME280;66258;53.170;-2.240;2023-03-20T04:25:06;100067.50;;;17.01;nan
77240;BME280;66258;53.170;-2.240;2023-03-20T04:27:34;100072.78;;;16.89;nan
77240;BME280;66258;53.170;-2.240;2023-03-20T04:30:01;100065.22;;;16.78;nan
77240;BME280;66258;53.170;-2.240;2023-03-20T04:32:28;100064.41;;;16.71;nan
77240;BME280;66258;53.170;-2.240;2023-03-20T04:34:54;100056.84;;;16.40;nan
77240;BME280;66258;53.170;-2.240;2023-03-20T04:37:21;100065.44;;;16.70;nan
77240;BME280;66258;53.170;-2.240;2023-03-20T04:39:48;100068.81;;;16.78;nan
77240;BME280;66258;53.170;-2.240;2023-03-20T04:42:14;100069.44;;;16.80;nan
77240;BME280;66258;53.170;-2.240;2023-03-20T04:44:42;100058.91;;;16.84;nan
77240;BME280;66258;53.170;-2.240;2023-03-20T04:47:09;100067.53;;;16.74;nan
77240;BME280;66258;53.170;-2.240;2023-03-20T04:49:36;100068.56;;;16.93;nan
77240;BME280;66258;53.170;-2.240;2023-03-20T04:52:03;100067.50;;;16.94;nan
77240;BME280;66258;53.170;-2.240;2023-03-20T04:54:29;100068.09;;;17.09;nan
77240;BME280;66258;53.170;-2.240;2023-03-20T04:56:56;100063.03;;;17.06;nan
77240;BME280;66258;53.170;-2.240;2023-03-20T04:59:23;100060.72;;;17.10;nan
77240;BME280;66258;53.170;-2.240;2023-03-20T05:01:51;100066.81;;;17.18;nan
77240;BME280;66258;53.170;-2.240;2023-03-20T05:04:18;100060.28;;;17.20;nan
77240;BME280;66258;53.170;-2.240;2023-03-20T05:06:44;100064.97;;;16.93;nan
77240;BME280;66258;53.170;-2.240;2023-03-20T05:09:11;100053.41;;;16.97;nan
77240;BME280;66258;53.170;-2.240;2023-03-20T05:11:38;100048.56;;;16.99;nan
77240;BME280;66258;53.170;-2.240;2023-03-20T05:14:04;100046.06;;;16.91;nan
77240;BME280;66258;53.170;-2.240;2023-03-20T05:16:31;100049.00;;;16.90;nan
77240;BME280;66258;53.170;-2.240;2023-03-20T05:18:59;100053.41;;;16.84;nan
77240;BME280;66258;53.170;-2.240;2023-03-20T05:21:26;100046.28;;;16.90;nan
77240;BME280;66258;53.170;-2.240;2023-03-20T05:23:53;100052.63;;;16.70;nan
77240;BME280;66258;53.170;-2.240;2023-03-20T05:26:19;100051.75;;;16.90;nan
77240;BME280;66258;53.170;-2.240;2023-03-20T05:28:46;100048.44;;;16.41;nan
77240;BME280;66258;53.170;-2.240;2023-03-20T05:31:13;100036.78;;;16.99;nan
77240;BME280;66258;53.170;-2.240;2023-03-20T05:33:40;100046.41;;;17.14;nan
77240;BME280;66258;53.170;-2.240;2023-03-20T05:36:08;100049.16;;;17.08;nan
77240;BME280;66258;53.170;-2.240;2023-03-20T05:38:35;100039.03;;;17.22;nan
77240;BME280;66258;53.170;-2.240;2023-03-20T05:41:02;100039.31;;;16.94;nan
77240;BME280;66258;53.170;-2.240;2023-03-20T05:43:29;100045.97;;;17.24;nan
77240;BME280;66258;53.170;-2.240;2023-03-20T05:45:55;100040.50;;;17.17;nan
77240;BME280;66258;53.170;-2.240;2023-03-20T05:48:22;100030.44;;;17.05;nan
77240;BME280;66258;53.170;-2.240;2023-03-20T05:50:50;100030.47;;;16.98;nan
77240;BME280;66258;53.170;-2.240;2023-03-20T05:53:19;100037.34;;;17.21;nan
77240;BME280;66258;53.170;-2.240;2023-03-20T05:55:45;100041.78;;;17.08;nan
77240;BME280;66258;53.170;-2.240;2023-03-20T05:58:12;100040.94;;;17.14;nan
77240;BME280;66258;53.170;-2.240;2023-03-20T06:00:39;100043.81;;;17.26;nan
77240;BME280;66258;53.170;-2.240;2023-03-20T06:03:05;100036.91;;;17.24;nan
77240;BME280;66258;53.170;-2.240;2023-03-20T06:05:32;100040.75;;;17.09;nan
77240;BME280;66258;53.170;-2.240;2023-03-20T06:07:59;100037.09;;;17.29;nan
77240;BME280;66258;53.170;-2.240;2023-03-20T06:10:28;100043.88;;;17.20;nan
77240;BME280;66258;53.170;-2.240;2023-03-20T06:12:55;100050.75;;;17.29;nan
77240;BME280;66258;53.170;-2.240;2023-03-20T06:15:22;100046.59;;;17.20;nan
77240;BME280;66258;53.170;-2.240;2023-03-20T06:17:48;100046.59;;;17.20;nan
77240;BME280;66258;53.170;-2.240;2023-03-20T06:20:15;100047.88;;;17.10;nan
77240;BME280;66258;53.170;-2.240;2023-03-20T06:22:42;100053.16;;;17.12;nan
77240;BME280;66258;53.170;-2.240;2023-03-20T06:25:09;100059.31;;;16.94;nan
77240;BME280;66258;53.170;-2.240;2023-03-20T06:27:37;100050.41;;;17.12;nan
77240;BME280;66258;53.170;-2.240;2023-03-20T06:30:05;100052.31;;;17.05;nan
77240;BME280;66258;53.170;-2.240;2023-03-20T06:32:32;100062.84;;;17.08;nan
77240;BME280;66258;53.170;-2.240;2023-03-20T06:34:59;100064.34;;;16.97;nan
77240;BME280;66258;53.170;-2.240;2023-03-20T06:37:26;100055.72;;;17.00;nan
77240;BME280;66258;53.170;-2.240;2023-03-20T06:39:53;100072.53;;;17.04;nan
77240;BME280;66258;53.170;-2.240;2023-03-20T06:42:19;100068.34;;;17.01;nan
77240;BME280;66258;53.170;-2.240;2023-03-20T06:44:47;100071.88;;;17.15;nan
77240;BME280;66258;53.170;-2.240;2023-03-20T06:47:14;100077.75;;;17.18;nan
77240;BME280;66258;53.170;-2.240;2023-03-20T06:49:41;100069.56;;;17.12;nan
77240;BME280;66258;53.170;-2.240;2023-03-20T06:52:13;100071.28;;;16.93;nan
77240;BME280;66258;53.170;-2.240;2023-03-20T06:54:40;100076.50;;;17.14;nan
77240;BME280;66258;53.170;-2.240;2023-03-20T06:57:07;100076.06;;;17.17;nan
77240;BME280;66258;53.170;-2.240;2023-03-20T06:59:33;100070.63;;;17.11;nan
77240;BME280;66258;53.170;-2.240;2023-03-20T07:02:02;100066.41;;;17.15;nan
77240;BME280;66258;53.170;-2.240;2023-03-20T07:04:28;100070.81;;;17.23;nan
77240;BME280;66258;53.170;-2.240;2023-03-20T07:06:55;100072.25;;;17.25;nan
77240;BME280;66258;53.170;-2.240;2023-03-20T07:09:22;100069.28;;;17.33;nan
77240;BME280;66258;53.170;-2.240;2023-03-20T07:11:49;100073.19;;;17.50;nan
77240;BME280;66258;53.170;-2.240;2023-03-20T07:14:15;100073.19;;;17.50;nan
77240;BME280;66258;53.170;-2.240;2023-03-20T07:16:42;100075.31;;;17.48;nan
77240;BME280;66258;53.170;-2.240;2023-03-20T07:19:10;100074.88;;;17.65;nan
77240;BME280;66258;53.170;-2.240;2023-03-20T07:21:37;100074.03;;;17.64;nan
77240;BME280;66258;53.170;-2.240;2023-03-20T07:24:04;100068.03;;;17.80;nan
77240;BME280;66258;53.170;-2.240;2023-03-20T07:26:31;100070.56;;;17.75;nan
77240;BME280;66258;53.170;-2.240;2023-03-20T07:28:58;100075.09;;;17.50;nan
77240;BME280;66258;53.170;-2.240;2023-03-20T07:31:26;100077.81;;;17.57;nan
77240;BME280;66258;53.170;-2.240;2023-03-20T07:33:53;100074.34;;;17.81;nan
77240;BME280;66258;53.170;-2.240;2023-03-20T07:36:21;100077.44;;;17.91;nan
77240;BME280;66258;53.170;-2.240;2023-03-20T07:38:48;100080.75;;;18.00;nan
77240;BME280;66258;53.170;-2.240;2023-03-20T07:41:14;100076.13;;;18.00;nan
77240;BME280;66258;53.170;-2.240;2023-03-20T07:43:41;100075.28;;;18.00;nan
77240;BME280;66258;53.170;-2.240;2023-03-20T07:46:10;100082.06;;;18.22;nan
77240;BME280;66258;53.170;-2.240;2023-03-20T07:48:37;100074.28;;;18.19;nan
77240;BME280;66258;53.170;-2.240;2023-03-20T07:51:04;100082.63;;;18.31;nan
77240;BME280;66258;53.170;-2.240;2023-03-20T07:53:32;100087.13;;;18.25;nan
77240;BME280;66258;53.170;-2.240;2023-03-20T07:55:59;100085.25;;;18.19;nan
77240;BME280;66258;53.170;-2.240;2023-03-20T07:58:25;100090.91;;;18.24;nan
77240;BME280;66258;53.170;-2.240;2023-03-20T08:00:52;100097.63;;;18.28;nan
77240;BME280;66258;53.170;-2.240;2023-03-20T08:03:19;100092.59;;;18.25;nan
77240;BME280;66258;53.170;-2.240;2023-03-20T08:05:46;100092.16;;;18.28;nan
77240;BME280;66258;53.170;-2.240;2023-03-20T08:08:12;100095.19;;;18.13;nan
77240;BME280;66258;53.170;-2.240;2023-03-20T08:10:41;100099.19;;;18.17;nan
77240;BME280;66258;53.170;-2.240;2023-03-20T08:13:07;100090.22;;;18.04;nan
77240;BME280;66258;53.170;-2.240;2023-03-20T08:15:34;100095.16;;;18.20;nan
77240;BME280;66258;53.170;-2.240;2023-03-20T08:18:01;100103.63;;;18.43;nan
77240;BME280;66258;53.170;-2.240;2023-03-20T08:20:28;100101.81;;;18.62;nan
77240;BME280;66258;53.170;-2.240;2023-03-20T08:22:54;100104.34;;;18.64;nan
77240;BME280;66258;53.170;-2.240;2023-03-20T08:25:21;100112.03;;;18.73;nan
77240;BME280;66258;53.170;-2.240;2023-03-20T08:27:50;100110.75;;;18.76;nan
77240;BME280;66258;53.170;-2.240;2023-03-20T08:30:17;100108.66;;;18.71;nan
77240;BME280;66258;53.170;-2.240;2023-03-20T08:32:43;100106.34;;;18.93;nan
77240;BME280;66258;53.170;-2.240;2023-03-20T08:35:10;100113.41;;;19.07;nan
77240;BME280;66258;53.170;-2.240;2023-03-20T08:37:55;100109.50;;;19.15;nan
77240;BME280;66258;53.170;-2.240;2023-03-20T08:40:22;100105.25;;;19.37;nan
77240;BME280;66258;53.170;-2.240;2023-03-20T08:42:50;100111.59;;;19.38;nan
77240;BME280;66258;53.170;-2.240;2023-03-20T08:45:17;100109.78;;;19.32;nan
77240;BME280;66258;53.170;-2.240;2023-03-20T08:47:46;100113.94;;;19.34;nan
77240;BME280;66258;53.170;-2.240;2023-03-20T08:50:13;100105.41;;;19.42;nan
77240;BME280;66258;53.170;-2.240;2023-03-20T08:52:40;100105.19;;;19.44;nan
77240;BME280;66258;53.170;-2.240;2023-03-20T08:55:07;100110.00;;;19.30;nan
77240;BME280;66258;53.170;-2.240;2023-03-20T08:57:34;100112.97;;;19.29;nan
77240;BME280;66258;53.170;-2.240;2023-03-20T09:00:02;100122.50;;;19.26;nan
77240;BME280;66258;53.170;-2.240;2023-03-20T09:02:29;100117.44;;;19.41;nan
77240;BME280;66258;53.170;-2.240;2023-03-20T09:04:56;100121.50;;;19.39;nan
77240;BME280;66258;53.170;-2.240;2023-03-20T09:07:22;100116.31;;;19.49;nan
77240;BME280;66258;53.170;-2.240;2023-03-20T09:09:49;100120.06;;;19.54;nan
77240;BME280;66258;53.170;-2.240;2023-03-20T09:12:16;100118.47;;;19.65;nan
77240;BME280;66258;53.170;-2.240;2023-03-20T09:14:43;100121.28;;;19.59;nan
77240;BME280;66258;53.170;-2.240;2023-03-20T09:17:11;100121.44;;;19.64;nan
77240;BME280;66258;53.170;-2.240;2023-03-20T09:19:38;100123.41;;;19.75;nan
77240;BME280;66258;53.170;-2.240;2023-03-20T09:22:05;100139.06;;;19.74;nan
77240;BME280;66258;53.170;-2.240;2023-03-20T09:24:32;100138.28;;;19.49;nan
77240;BME280;66258;53.170;-2.240;2023-03-20T09:26:59;100130.28;;;19.47;nan
77240;BME280;66258;53.170;-2.240;2023-03-20T09:29:29;100136.31;;;19.56;nan
77240;BME280;66258;53.170;-2.240;2023-03-20T09:31:56;100132.50;;;19.57;nan
77240;BME280;66258;53.170;-2.240;2023-03-20T09:34:24;100134.38;;;19.75;nan
77240;BME280;66258;53.170;-2.240;2023-03-20T09:36:51;100133.09;;;19.59;nan
77240;BME280;66258;53.170;-2.240;2023-03-20T09:39:17;100141.03;;;19.85;nan
77240;BME280;66258;53.170;-2.240;2023-03-20T09:41:47;100143.91;;;19.90;nan
77240;BME280;66258;53.170;-2.240;2023-03-20T09:44:37;100149.41;;;19.90;nan
77240;BME280;66258;53.170;-2.240;2023-03-20T09:47:12;100148.84;;;20.00;nan
77240;BME280;66258;53.170;-2.240;2023-03-20T09:49:58;100151.59;;;20.30;nan
77240;BME280;66258;53.170;-2.240;2023-03-20T09:52:30;100147.66;;;20.56;nan
77240;BME280;66258;53.170;-2.240;2023-03-20T09:55:01;100144.34;;;21.12;nan
77240;BME280;66258;53.170;-2.240;2023-03-20T09:57:36;100155.25;;;21.82;nan
77240;BME280;66258;53.170;-2.240;2023-03-20T10:00:06;100157.16;;;22.50;nan
77240;BME280;66258;53.170;-2.240;2023-03-20T10:02:41;100160.53;;;22.69;nan
77240;BME280;66258;53.170;-2.240;2023-03-20T10:05:18;100164.09;;;22.81;nan
77240;BME280;66258;53.170;-2.240;2023-03-20T10:07:47;100163.25;;;22.81;nan
77240;BME280;66258;53.170;-2.240;2023-03-20T10:10:14;100160.50;;;22.81;nan
77240;BME280;66258;53.170;-2.240;2023-03-20T10:13:01;100164.66;;;23.00;nan
77240;BME280;66258;53.170;-2.240;2023-03-20T10:15:42;100163.22;;;23.14;nan
77240;BME280;66258;53.170;-2.240;2023-03-20T10:18:17;100147.19;;;22.94;nan
77240;BME280;66258;53.170;-2.240;2023-03-20T10:20:54;100161.69;;;22.73;nan
77240;BME280;66258;53.170;-2.240;2023-03-20T10:23:27;100155.81;;;22.36;nan
77240;BME280;66258;53.170;-2.240;2023-03-20T10:26:01;100157.19;;;22.22;nan
77240;BME280;66258;53.170;-2.240;2023-03-20T10:28:31;100163.09;;;22.42;nan
77240;BME280;66258;53.170;-2.240;2023-03-20T10:31:20;100163.09;;;22.42;nan
77240;BME280;66258;53.170;-2.240;2023-03-20T10:33:57;100154.13;;;22.35;nan
77240;BME280;66258;53.170;-2.240;2023-03-20T10:36:38;100156.28;;;22.33;nan
77240;BME280;66258;53.170;-2.240;2023-03-20T10:39:12;100168.03;;;22.57;nan
77240;BME280;66258;53.170;-2.240;2023-03-20T10:41:48;100157.63;;;22.31;nan
77240;BME280;66258;53.170;-2.240;2023-03-20T10:44:25;100152.91;;;22.43;nan
77240;BME280;66258;53.170;-2.240;2023-03-20T10:46:56;100152.31;;;22.57;nan
77240;BME280;66258;53.170;-2.240;2023-03-20T10:49:29;100148.78;;;22.45;nan
77240;BME280;66258;53.170;-2.240;2023-03-20T10:52:02;100143.25;;;21.88;nan
77240;BME280;66258;53.170;-2.240;2023-03-20T10:54:33;100148.72;;;22.40;nan
77240;BME280;66258;53.170;-2.240;2023-03-20T10:57:03;100146.13;;;22.50;nan
77240;BME280;66258;53.170;-2.240;2023-03-20T10:59:33;100148.03;;;22.50;nan
77240;BME280;66258;53.170;-2.240;2023-03-20T11:02:09;100142.22;;;22.18;nan
77240;BME280;66258;53.170;-2.240;2023-03-20T11:04:35;100152.03;;;23.04;nan
77240;BME280;66258;53.170;-2.240;2023-03-20T11:07:11;100152.38;;;23.46;nan
77240;BME280;66258;53.170;-2.240;2023-03-20T11:09:40;100146.69;;;23.36;nan
77240;BME280;66258;53.170;-2.240;2023-03-20T11:12:15;100150.75;;;23.89;nan
77240;BME280;66258;53.170;-2.240;2023-03-20T11:14:42;100142.63;;;23.22;nan
77240;BME280;66258;53.170;-2.240;2023-03-20T11:17:09;100147.00;;;23.18;nan
77240;BME280;66258;53.170;-2.240;2023-03-20T11:19:38;100134.78;;;22.63;nan
77240;BME280;66258;53.170;-2.240;2023-03-20T11:22:09;100137.59;;;22.69;nan
77240;BME280;66258;53.170;-2.240;2023-03-20T11:24:51;100136.75;;;22.80;nan
77240;BME280;66258;53.170;-2.240;2023-03-20T11:27:25;100132.97;;;23.03;nan
77240;BME280;66258;53.170;-2.240;2023-03-20T11:29:54;100126.94;;;22.89;nan
77240;BME280;66258;53.170;-2.240;2023-03-20T11:32:26;100134.19;;;23.12;nan
77240;BME280;66258;53.170;-2.240;2023-03-20T11:34:54;100127.94;;;23.00;nan
77240;BME280;66258;53.170;-2.240;2023-03-20T11:37:26;100120.28;;;21.83;nan
77240;BME280;66258;53.170;-2.240;2023-03-20T11:39:56;100116.06;;;21.92;nan
77240;BME280;66258;53.170;-2.240;2023-03-20T11:42:25;100117.19;;;22.19;nan
77240;BME280;66258;53.170;-2.240;2023-03-20T11:45:00;100125.47;;;22.53;nan
77240;BME280;66258;53.170;-2.240;2023-03-20T11:47:31;100124.59;;;22.64;nan
77240;BME280;66258;53.170;-2.240;2023-03-20T11:50:01;100112.00;;;22.85;nan
77240;BME280;66258;53.170;-2.240;2023-03-20T11:52:33;100115.47;;;22.63;nan
77240;BME280;66258;53.170;-2.240;2023-03-20T11:55:04;100116.56;;;23.35;nan
77240;BME280;66258;53.170;-2.240;2023-03-20T11:57:33;100108.34;;;23.56;nan
77240;BME280;66258;53.170;-2.240;2023-03-20T12:00:04;100097.34;;;23.61;nan
77240;BME280;66258;53.170;-2.240;2023-03-20T12:02:34;100107.91;;;23.09;nan
77240;BME280;66258;53.170;-2.240;2023-03-20T12:05:18;100107.63;;;23.88;nan
77240;BME280;66258;53.170;-2.240;2023-03-20T12:07:48;100095.94;;;22.82;nan
77240;BME280;66258;53.170;-2.240;2023-03-20T12:10:19;100093.06;;;22.43;nan
77240;BME280;66258;53.170;-2.240;2023-03-20T12:12:50;100092.06;;;23.00;nan
77240;BME280;66258;53.170;-2.240;2023-03-20T12:15:24;100094.06;;;22.87;nan
77240;BME280;66258;53.170;-2.240;2023-03-20T12:17:55;100083.03;;;22.37;nan
77240;BME280;66258;53.170;-2.240;2023-03-20T12:20:31;100092.97;;;22.72;nan
77240;BME280;66258;53.170;-2.240;2023-03-20T12:23:09;100086.97;;;22.41;nan
77240;BME280;66258;53.170;-2.240;2023-03-20T12:25:43;100090.38;;;22.48;nan
77240;BME280;66258;53.170;-2.240;2023-03-20T12:28:19;100091.22;;;22.49;nan
77240;BME280;66258;53.170;-2.240;2023-03-20T12:30:56;100104.53;;;23.02;nan
77240;BME280;66258;53.170;-2.240;2023-03-20T12:33:39;100103.09;;;23.38;nan
77240;BME280;66258;53.170;-2.240;2023-03-20T12:36:13;100098.44;;;22.83;nan
77240;BME280;66258;53.170;-2.240;2023-03-20T12:38:42;100107.41;;;23.73;nan
77240;BME280;66258;53.170;-2.240;2023-03-20T12:41:12;100102.19;;;22.94;nan
77240;BME280;66258;53.170;-2.240;2023-03-20T12:46:51;100104.38;;;24.23;nan
77240;BME280;66258;53.170;-2.240;2023-03-20T12:49:31;100098.28;;;23.12;nan
77240;BME280;66258;53.170;-2.240;2023-03-20T12:52:08;100090.69;;;23.41;nan
77240;BME280;66258;53.170;-2.240;2023-03-20T12:57:36;100094.97;;;24.46;nan
77240;BME280;66258;53.170;-2.240;2023-03-20T13:00:15;100094.78;;;24.04;nan
77240;BME280;66258;53.170;-2.240;2023-03-20T13:02:56;100094.06;;;25.04;nan
77240;BME280;66258;53.170;-2.240;2023-03-20T13:05:35;100088.53;;;24.40;nan
77240;BME280;66258;53.170;-2.240;2023-03-20T13:08:24;100086.44;;;23.98;nan
77240;BME280;66258;53.170;-2.240;2023-03-20T13:11:04;100098.09;;;24.59;nan
77240;BME280;66258;53.170;-2.240;2023-03-20T13:13:45;100087.44;;;23.87;nan
77240;BME280;66258;53.170;-2.240;2023-03-20T13:16:20;100074.59;;;23.54;nan
77240;BME280;66258;53.170;-2.240;2023-03-20T13:18:56;100077.00;;;23.29;nan
77240;BME280;66258;53.170;-2.240;2023-03-20T13:21:32;100076.47;;;23.32;nan
77240;BME280;66258;53.170;-2.240;2023-03-20T13:24:17;100071.03;;;23.37;nan
77240;BME280;66258;53.170;-2.240;2023-03-20T13:26:51;100067.84;;;23.67;nan
77240;BME280;66258;53.170;-2.240;2023-03-20T13:29:28;100069.66;;;24.05;nan
77240;BME280;66258;53.170;-2.240;2023-03-20T13:32:10;100057.97;;;23.11;nan